Time;durP1;ratioP1;P1;durP2;ratioP2;P2;SDS_P1;SDS_P2;PMS_P1;PMS_P2;Temp;Humidity;BMP_temperature;BMP_pressure;BME280_temperature;BME280_humidity;BME280_pressure;Samples;Min_cycle;Max_cycle;Signal;HPM_P1;HPM_P2
2021/12/11 00:02:13;;;;;;;25.50;7.50;;;3.80;99.90;;;;;;5006736;28;20030;-71
2021/12/11 00:04:43;;;;;;;19.77;8.10;;;3.80;99.90;;;;;;5006705;28;20034;-69
2021/12/11 00:07:12;;;;;;;25.08;8.93;;;3.80;99.90;;;;;;5006271;28;20066;-70
2021/12/11 00:09:42;;;;;;;30.95;8.98;;;3.80;99.90;;;;;;5005127;28;20031;-71
2021/12/11 00:12:11;;;;;;;28.45;8.32;;;3.90;99.90;;;;;;5006297;28;20026;-72
2021/12/11 00:14:40;;;;;;;28.30;9.10;;;3.80;99.90;;;;;;5006436;28;20434;-71
2021/12/11 00:17:06;;;;;;;26.88;9.27;;;3.80;99.90;;;;;;5006179;28;20034;-70
2021/12/11 00:19:36;;;;;;;27.13;9.13;;;3.90;99.90;;;;;;5005638;28;20051;-70
2021/12/11 00:22:12;;;;;;;22.35;8.80;;;3.90;99.90;;;;;;5005811;28;20081;-72
2021/12/11 00:24:39;;;;;;;27.17;9.48;;;3.90;99.90;;;;;;5006000;28;20031;-73
2021/12/11 00:27:22;;;;;;;22.63;7.90;;;3.90;99.90;;;;;;5006138;28;20037;-71
2021/12/11 00:29:49;;;;;;;31.00;9.38;;;3.80;99.90;;;;;;5006102;28;20376;-71
2021/12/11 00:32:25;;;;;;;28.88;9.35;;;3.90;99.90;;;;;;5006219;28;20039;-71
2021/12/11 00:34:57;;;;;;;24.75;8.82;;;3.90;99.90;;;;;;5005930;28;20065;-71
2021/12/11 00:37:25;;;;;;;23.30;7.85;;;3.90;99.90;;;;;;5006101;28;20048;-71
2021/12/11 00:39:55;;;;;;;22.63;7.45;;;3.90;99.90;;;;;;5005712;28;20038;-71
2021/12/11 00:42:31;;;;;;;28.67;8.43;;;4.00;99.90;;;;;;5005368;28;20026;-70
2021/12/11 00:45:07;;;;;;;27.25;8.32;;;4.00;99.90;;;;;;5006022;28;20086;-70
2021/12/11 00:48:12;;;;;;;28.63;8.63;;;3.90;99.90;;;;;;5004269;28;20123;-72
2021/12/11 00:50:47;;;;;;;19.48;7.65;;;3.90;99.90;;;;;;5000148;28;20065;-70
2021/12/11 00:53:36;;;;;;;22.92;8.88;;;3.90;99.90;;;;;;5005481;28;20038;-71
2021/12/11 00:56:06;;;;;;;18.38;7.20;;;3.90;99.90;;;;;;5005665;28;20027;-70
2021/12/11 00:58:36;;;;;;;17.30;7.43;;;3.90;99.90;;;;;;5005509;28;20100;-69
2021/12/11 01:01:07;;;;;;;19.92;7.70;;;3.90;99.90;;;;;;5005467;28;20029;-70
2021/12/11 01:03:41;;;;;;;23.95;7.95;;;3.90;99.90;;;;;;5005632;28;20035;-69
2021/12/11 01:06:37;;;;;;;26.17;8.52;;;3.80;99.90;;;;;;5005605;28;20112;-70
2021/12/11 01:09:14;;;;;;;32.45;9.43;;;3.90;99.90;;;;;;4998967;28;20034;-70
2021/12/11 01:11:48;;;;;;;24.13;7.47;;;3.80;99.90;;;;;;5005235;28;20402;-69
2021/12/11 01:14:42;;;;;;;18.38;7.70;;;3.80;99.90;;;;;;5005351;28;20019;-71
2021/12/11 01:17:14;;;;;;;28.92;8.38;;;3.90;99.90;;;;;;5004540;28;20038;-70
2021/12/11 01:19:44;;;;;;;35.08;8.80;;;3.90;99.90;;;;;;5003598;28;20118;-70
2021/12/11 01:22:24;;;;;;;24.80;9.13;;;3.90;99.90;;;;;;5005204;28;20038;-69
2021/12/11 01:24:52;;;;;;;23.95;8.68;;;3.90;99.90;;;;;;5005541;28;20058;-70
2021/12/11 01:27:25;;;;;;;26.77;8.02;;;3.90;99.90;;;;;;5004066;28;20426;-70
2021/12/11 01:29:56;;;;;;;17.10;7.43;;;3.90;99.90;;;;;;5005492;28;20034;-71
2021/12/11 01:32:28;;;;;;;31.05;8.40;;;3.90;99.90;;;;;;5005298;28;20045;-70
2021/12/11 01:34:56;;;;;;;27.83;9.70;;;3.90;99.90;;;;;;5005183;28;20022;-70
2021/12/11 01:37:22;;;;;;;23.33;8.40;;;3.90;99.90;;;;;;5005199;28;20069;-71
2021/12/11 01:39:50;;;;;;;23.92;8.23;;;3.90;99.90;;;;;;5003814;28;20038;-70
2021/12/11 01:42:29;;;;;;;24.70;7.47;;;3.90;99.90;;;;;;5005018;28;20035;-70
2021/12/11 01:44:57;;;;;;;25.95;7.55;;;3.80;99.90;;;;;;5005307;28;20035;-70
2021/12/11 01:47:30;;;;;;;22.50;7.18;;;3.90;99.90;;;;;;5005275;28;20027;-70
2021/12/11 01:50:09;;;;;;;21.20;7.65;;;3.90;99.90;;;;;;5004830;28;20031;-71
2021/12/11 01:52:59;;;;;;;17.73;7.93;;;3.90;99.90;;;;;;5005015;28;20037;-72
2021/12/11 01:55:44;;;;;;;27.58;7.65;;;3.90;99.90;;;;;;5008585;28;20390;-70
2021/12/11 01:58:14;;;;;;;21.38;8.38;;;3.90;99.90;;;;;;5008431;28;20042;-71
2021/12/11 02:00:58;;;;;;;20.25;8.63;;;3.90;99.90;;;;;;5008702;28;20034;-70
2021/12/11 02:03:28;;;;;;;14.68;6.22;;;3.90;99.90;;;;;;5008662;28;20034;-70
2021/12/11 02:05:55;;;;;;;26.55;8.73;;;3.90;99.90;;;;;;5009022;28;20383;-70
2021/12/11 02:08:26;;;;;;;25.83;8.30;;;3.80;99.90;;;;;;5008633;28;20035;-71
2021/12/11 02:11:10;;;;;;;26.10;8.93;;;3.80;99.90;;;;;;5008564;28;20068;-71
2021/12/11 02:13:44;;;;;;;27.10;8.70;;;3.80;99.90;;;;;;5008730;28;20094;-69
2021/12/11 02:16:31;;;;;;;18.50;7.53;;;3.60;99.90;;;;;;5008644;28;20076;-71
2021/12/11 02:19:22;;;;;;;20.30;7.78;;;3.50;99.90;;;;;;5008031;28;20050;-70
2021/12/11 02:22:05;;;;;;;26.85;7.47;;;3.40;99.90;;;;;;5008589;28;20110;-70
2021/12/11 02:24:38;;;;;;;27.30;8.32;;;3.20;99.90;;;;;;5008682;28;20038;-70
2021/12/11 02:27:14;;;;;;;27.08;8.57;;;3.10;99.90;;;;;;5007494;28;20069;-70
2021/12/11 02:29:46;;;;;;;23.67;8.80;;;3.00;99.90;;;;;;5008426;28;20061;-71
2021/12/11 02:32:21;;;;;;;30.80;8.48;;;2.90;99.90;;;;;;5008327;28;20471;-71
2021/12/11 02:34:57;;;;;;;30.35;9.13;;;2.90;99.90;;;;;;5008027;28;20027;-71
2021/12/11 02:37:44;;;;;;;31.05;10.00;;;2.90;99.90;;;;;;5008037;28;20038;-72
2021/12/11 02:40:21;;;;;;;19.70;7.90;;;2.90;99.90;;;;;;5008282;28;20038;-70
2021/12/11 02:42:59;;;;;;;30.33;7.88;;;2.90;99.90;;;;;;5008356;28;20062;-70
2021/12/11 02:46:11;;;;;;;23.02;8.65;;;3.00;99.90;;;;;;5008022;28;20116;-71
2021/12/11 02:49:06;;;;;;;19.45;7.38;;;3.10;99.90;;;;;;5007608;28;20030;-72
2021/12/11 02:51:55;;;;;;;21.60;7.05;;;3.10;99.90;;;;;;5006361;28;20038;-70
2021/12/11 02:54:25;;;;;;;26.17;8.77;;;3.10;99.90;;;;;;5008111;28;20034;-70
2021/12/11 02:57:02;;;;;;;30.80;9.13;;;3.20;99.90;;;;;;5005130;28;20039;-70
2021/12/11 02:59:31;;;;;;;29.90;8.57;;;3.30;99.90;;;;;;5007926;28;20031;-70
2021/12/11 03:02:09;;;;;;;25.35;8.35;;;3.30;99.90;;;;;;5007333;28;20050;-70
2021/12/11 03:04:38;;;;;;;20.25;7.85;;;3.30;99.90;;;;;;5007527;28;20114;-69
2021/12/11 03:07:12;;;;;;;19.92;8.13;;;3.40;99.90;;;;;;5007627;28;20037;-69
2021/12/11 03:09:43;;;;;;;25.20;7.15;;;3.40;99.90;;;;;;5007620;28;20631;-69
2021/12/11 03:12:12;;;;;;;22.88;8.43;;;3.40;99.90;;;;;;5006087;28;20045;-70
2021/12/11 03:14:38;;;;;;;26.17;7.82;;;3.40;99.90;;;;;;5006709;28;20030;-70
2021/12/11 03:17:05;;;;;;;24.17;8.52;;;3.40;99.90;;;;;;5007014;28;20125;-70
2021/12/11 03:19:33;;;;;;;19.95;7.93;;;3.40;99.90;;;;;;5004770;28;20050;-70
2021/12/11 03:22:00;;;;;;;29.63;7.22;;;3.40;99.90;;;;;;5007151;28;20120;-71
2021/12/11 03:24:29;;;;;;;21.80;8.13;;;3.40;99.90;;;;;;5005356;28;20026;-72
2021/12/11 03:26:56;;;;;;;20.00;7.28;;;3.40;99.90;;;;;;5005965;28;20033;-72
2021/12/11 03:29:23;;;;;;;21.67;7.88;;;3.40;99.90;;;;;;5005727;28;20019;-70
2021/12/11 03:31:51;;;;;;;27.33;8.35;;;3.30;99.90;;;;;;5006847;28;20127;-70
2021/12/11 03:34:20;;;;;;;28.15;7.47;;;3.30;99.90;;;;;;5006015;28;20039;-70
2021/12/11 03:36:46;;;;;;;21.67;8.05;;;3.20;99.90;;;;;;5006749;28;20038;-69
2021/12/11 03:39:16;;;;;;;22.67;8.27;;;3.20;99.90;;;;;;5006811;28;20030;-70
2021/12/11 03:41:45;;;;;;;29.83;7.70;;;3.20;99.90;;;;;;5005525;28;20818;-70
2021/12/11 03:44:11;;;;;;;20.35;6.95;;;3.20;99.90;;;;;;5006595;28;20502;-70
2021/12/11 03:46:37;;;;;;;22.27;8.65;;;3.20;99.90;;;;;;5006915;28;20026;-69
2021/12/11 03:49:09;;;;;;;16.13;6.68;;;3.30;99.90;;;;;;5006813;28;20077;-70
2021/12/11 03:51:37;;;;;;;21.95;8.60;;;3.30;99.90;;;;;;5007082;28;20061;-69
2021/12/11 03:54:07;;;;;;;23.23;8.32;;;3.30;99.90;;;;;;5006834;28;20022;-71
2021/12/11 03:56:33;;;;;;;21.60;7.63;;;3.40;99.90;;;;;;5006697;28;20028;-70
2021/12/11 03:59:00;;;;;;;21.48;6.75;;;3.40;99.90;;;;;;5006309;28;20682;-70
2021/12/11 04:01:33;;;;;;;17.58;7.38;;;3.30;99.90;;;;;;5006811;28;20029;-71
2021/12/11 04:04:13;;;;;;;23.75;8.00;;;3.30;99.90;;;;;;5006208;28;20026;-70
2021/12/11 04:06:39;;;;;;;21.75;7.40;;;3.40;99.90;;;;;;5006178;28;20030;-70
2021/12/11 04:09:08;;;;;;;17.60;6.57;;;3.40;99.90;;;;;;5006708;28;20053;-69
2021/12/11 04:11:35;;;;;;;17.90;6.60;;;3.40;99.90;;;;;;5005142;28;20034;-70
2021/12/11 04:14:07;;;;;;;19.17;7.30;;;3.30;99.90;;;;;;5005054;28;20049;-70
2021/12/11 04:16:34;;;;;;;32.97;8.00;;;3.30;99.90;;;;;;5005785;28;20027;-69
2021/12/11 04:19:04;;;;;;;21.13;7.38;;;3.30;99.90;;;;;;5004837;28;20112;-69
2021/12/11 04:21:37;;;;;;;18.70;7.30;;;3.30;99.90;;;;;;5002031;28;20045;-69
2021/12/11 04:24:05;;;;;;;20.77;7.45;;;3.30;99.90;;;;;;5005803;28;20030;-70
2021/12/11 04:26:34;;;;;;;21.17;7.53;;;3.20;99.90;;;;;;5006008;28;20037;-70
2021/12/11 04:29:00;;;;;;;29.25;7.47;;;3.30;99.90;;;;;;5005441;28;20026;-70
2021/12/11 04:31:33;;;;;;;26.00;7.68;;;3.30;99.90;;;;;;5005392;28;20069;-71
2021/12/11 04:34:03;;;;;;;18.90;7.30;;;3.20;99.90;;;;;;5005820;28;20092;-71
2021/12/11 04:36:34;;;;;;;13.80;5.35;;;3.20;99.90;;;;;;5005536;28;20367;-70
2021/12/11 04:39:01;;;;;;;17.98;6.32;;;3.20;99.90;;;;;;5005702;28;20038;-70
2021/12/11 04:41:36;;;;;;;21.80;7.68;;;3.30;99.90;;;;;;5005468;28;20031;-70
2021/12/11 04:44:16;;;;;;;30.65;7.35;;;3.30;99.90;;;;;;5005648;28;20034;-70
2021/12/11 04:46:42;;;;;;;17.90;6.80;;;3.20;99.90;;;;;;5005700;28;20025;-70
2021/12/11 04:49:23;;;;;;;21.65;6.75;;;3.30;99.90;;;;;;5005460;28;20026;-70
2021/12/11 04:52:01;;;;;;;15.73;5.97;;;3.30;99.90;;;;;;5005800;28;20030;-69
2021/12/11 04:54:42;;;;;;;14.93;5.35;;;3.40;99.90;;;;;;5005765;28;20026;-71
2021/12/11 05:00:10;;;;;;;19.90;7.20;;;3.40;99.90;;;;;;5006198;28;20042;-70
2021/12/11 05:11:01;;;;;;;18.02;6.85;;;3.50;99.90;;;;;;5004609;28;20065;-70
2021/12/11 05:13:28;;;;;;;19.42;6.30;;;3.40;99.90;;;;;;5005293;28;20037;-70
2021/12/11 05:15:58;;;;;;;16.13;6.68;;;3.50;99.90;;;;;;5005485;28;20030;-70
2021/12/11 05:18:27;;;;;;;18.60;7.15;;;3.50;99.90;;;;;;5004844;28;20053;-70
2021/12/11 05:20:57;;;;;;;19.75;7.95;;;3.50;99.90;;;;;;5005309;28;20022;-71
2021/12/11 05:23:23;;;;;;;15.45;7.10;;;3.50;99.90;;;;;;5005332;28;20041;-69
2021/12/11 05:25:49;;;;;;;21.00;7.03;;;3.60;99.90;;;;;;5005574;28;20030;-69
2021/12/11 05:28:15;;;;;;;17.88;6.88;;;3.50;99.90;;;;;;5004223;28;20069;-70
2021/12/11 05:30:46;;;;;;;12.85;5.68;;;3.50;99.90;;;;;;5005111;28;20774;-69
2021/12/11 05:33:12;;;;;;;25.20;9.20;;;3.60;99.90;;;;;;5005307;28;20041;-69
2021/12/11 05:35:40;;;;;;;30.58;8.55;;;3.50;99.90;;;;;;5004917;28;20049;-71
2021/12/11 05:38:08;;;;;;;22.63;6.78;;;3.50;99.90;;;;;;5004382;28;20085;-70
2021/12/11 05:40:38;;;;;;;18.90;6.55;;;3.50;99.90;;;;;;4997567;28;20042;-69
2021/12/11 05:43:05;;;;;;;25.25;7.25;;;3.40;99.90;;;;;;5000878;28;20031;-69
2021/12/11 05:45:32;;;;;;;27.50;8.10;;;3.40;99.90;;;;;;5004569;28;20061;-70
2021/12/11 05:47:58;;;;;;;18.13;6.53;;;3.40;99.90;;;;;;5004951;28;20037;-70
2021/12/11 05:50:28;;;;;;;26.73;7.03;;;3.40;99.90;;;;;;5004357;28;20031;-71
2021/12/11 05:52:54;;;;;;;20.25;7.10;;;3.30;99.90;;;;;;5004920;28;20523;-70
2021/12/11 05:55:22;;;;;;;23.27;7.18;;;3.20;99.90;;;;;;5005197;28;20033;-70
2021/12/11 05:57:53;;;;;;;20.77;6.75;;;3.20;99.90;;;;;;5004782;28;20081;-69
2021/12/11 06:00:27;;;;;;;24.48;8.63;;;3.20;99.90;;;;;;5005408;28;20054;-70
2021/12/11 06:02:53;;;;;;;18.92;7.47;;;3.20;99.90;;;;;;5005002;28;20018;-70
2021/12/11 06:05:19;;;;;;;28.45;8.73;;;3.20;99.90;;;;;;5004893;28;20038;-70
2021/12/11 06:07:45;;;;;;;20.13;7.32;;;3.20;99.90;;;;;;5004747;28;20054;-72
2021/12/11 06:10:16;;;;;;;23.23;7.95;;;3.20;99.90;;;;;;5002709;28;20049;-69
2021/12/11 06:12:43;;;;;;;18.17;7.68;;;3.20;99.90;;;;;;5004709;28;20034;-70
2021/12/11 06:15:09;;;;;;;31.35;7.90;;;3.20;99.90;;;;;;5004768;28;20113;-70
2021/12/11 06:17:36;;;;;;;19.45;8.73;;;3.10;99.90;;;;;;5004609;28;20053;-70
2021/12/11 06:20:05;;;;;;;21.52;6.38;;;3.20;99.90;;;;;;5003964;28;20042;-72
2021/12/11 06:22:33;;;;;;;37.53;11.38;;;3.10;99.90;;;;;;5004259;28;20038;-73
2021/12/11 06:25:07;;;;;;;22.00;8.73;;;3.10;99.90;;;;;;5003203;28;20033;-74
2021/12/11 06:27:33;;;;;;;;;;;3.10;99.90;;;;;;4985680;28;20022;-74
2021/12/11 06:29:59;;;;;;;34.63;9.60;;;3.00;99.90;;;;;;4983860;28;20362;-74
2021/12/11 06:32:26;;;;;;;16.05;6.88;;;3.00;99.90;;;;;;4987854;28;20034;-71
2021/12/11 06:34:54;;;;;;;19.48;7.78;;;2.90;99.90;;;;;;4993558;28;20039;-71
2021/12/11 06:37:21;;;;;;;21.92;9.35;;;2.80;99.90;;;;;;4985240;28;20043;-73
2021/12/11 06:39:50;;;;;;;21.75;6.72;;;2.70;99.90;;;;;;4985450;28;20033;-72
2021/12/11 06:42:18;;;;;;;17.15;6.70;;;2.70;99.90;;;;;;4994954;28;20073;-73
2021/12/11 06:44:45;;;;;;;16.67;7.40;;;2.60;99.90;;;;;;5001264;28;20061;-73
2021/12/11 06:47:11;;;;;;;16.92;7.00;;;2.50;99.90;;;;;;4999345;28;20026;-73
2021/12/11 06:49:40;;;;;;;16.20;7.40;;;2.50;99.90;;;;;;4988936;28;20403;-74
2021/12/11 06:52:11;;;;;;;24.15;7.43;;;2.60;99.90;;;;;;5002186;28;20080;-75
2021/12/11 06:54:37;;;;;;;18.67;6.57;;;2.50;99.90;;;;;;5006451;28;20022;-74
2021/12/11 06:57:03;;;;;;;16.92;7.80;;;2.50;99.90;;;;;;5007694;28;20026;-74
2021/12/11 06:59:29;;;;;;;18.20;7.97;;;2.50;99.90;;;;;;5007351;28;20022;-73
2021/12/11 07:01:54;;;;;;;22.35;8.13;;;2.50;99.90;;;;;;5006854;28;20030;-73
2021/12/11 07:04:22;;;;;;;21.02;8.18;;;2.50;99.90;;;;;;5007400;28;20038;-73
2021/12/11 07:06:51;;;;;;;22.35;7.78;;;2.50;99.90;;;;;;5007166;28;20069;-72
2021/12/11 07:09:19;;;;;;;17.17;7.20;;;2.50;99.90;;;;;;5007993;28;20050;-72
2021/12/11 07:11:45;;;;;;;19.70;8.07;;;2.50;99.90;;;;;;5006637;28;20037;-72
2021/12/11 07:14:15;;;;;;;20.30;7.47;;;2.50;99.90;;;;;;5007072;28;20042;-72
2021/12/11 07:16:41;;;;;;;19.77;8.98;;;2.50;99.90;;;;;;5004578;28;20038;-73
2021/12/11 07:19:07;;;;;;;19.50;7.75;;;2.50;99.90;;;;;;5010380;28;20137;-72
2021/12/11 07:21:33;;;;;;;17.90;8.20;;;2.50;99.90;;;;;;5016779;28;20082;-72
2021/12/11 07:24:00;;;;;;;21.42;8.07;;;2.40;99.90;;;;;;4994509;28;20042;-72
2021/12/11 07:26:32;;;;;;;16.35;7.70;;;2.50;99.90;;;;;;4990864;28;20031;-73
2021/12/11 07:29:04;;;;;;;22.63;7.60;;;2.50;99.90;;;;;;5004598;28;20042;-72
2021/12/11 07:31:29;;;;;;;19.75;7.38;;;2.50;99.90;;;;;;5007104;28;20019;-73
2021/12/11 07:33:56;;;;;;;20.58;8.38;;;2.50;99.90;;;;;;5006988;28;20040;-74
2021/12/11 07:36:22;;;;;;;25.67;8.90;;;2.50;99.90;;;;;;5006975;28;20034;-73
2021/12/11 07:38:49;;;;;;;22.90;7.38;;;2.60;99.90;;;;;;5005418;28;20038;-73
2021/12/11 07:41:16;;;;;;;16.52;6.68;;;2.60;99.90;;;;;;5006761;28;20026;-73
2021/12/11 07:43:51;;;;;;;26.17;8.00;;;2.60;99.90;;;;;;5007618;28;20031;-74
2021/12/11 07:46:22;;;;;;;18.50;7.95;;;2.60;99.90;;;;;;5006726;28;20034;-73
2021/12/11 07:48:48;;;;;;;20.65;8.40;;;2.60;99.90;;;;;;5007009;28;20025;-72
2021/12/11 07:51:16;;;;;;;22.42;7.93;;;2.70;99.90;;;;;;5005864;28;20034;-74
2021/12/11 07:53:43;;;;;;;27.08;7.88;;;2.70;99.90;;;;;;5006590;28;20363;-72
2021/12/11 07:56:09;;;;;;;17.60;7.03;;;2.80;99.90;;;;;;5004747;28;20026;-72
2021/12/11 07:58:35;;;;;;;25.48;7.03;;;2.80;99.90;;;;;;5004207;28;20053;-72
2021/12/11 08:01:04;;;;;;;18.85;8.23;;;2.80;99.90;;;;;;5005484;28;20069;-73
2021/12/11 08:03:31;;;;;;;23.85;8.75;;;2.90;99.90;;;;;;5006367;28;20058;-74
2021/12/11 08:05:57;;;;;;;15.43;8.07;;;3.10;99.90;;;;;;5004932;28;20027;-73
2021/12/11 08:08:24;;;;;;;18.50;7.40;;;3.30;99.90;;;;;;5005601;28;20038;-73
2021/12/11 08:10:58;;;;;;;17.38;8.48;;;3.50;99.90;;;;;;5006399;28;20030;-73
2021/12/11 08:13:24;;;;;;;23.80;9.13;;;3.80;99.90;;;;;;5006196;28;20093;-73
2021/12/11 08:15:54;;;;;;;17.63;8.73;;;4.00;99.90;;;;;;5006302;28;20042;-74
2021/12/11 08:18:22;;;;;;;27.73;12.98;;;4.20;99.90;;;;;;5004276;28;20118;-74
2021/12/11 08:20:48;;;;;;;27.60;12.80;;;4.40;99.90;;;;;;5004291;28;20041;-73
2021/12/11 08:23:16;;;;;;;25.98;11.85;;;4.60;99.90;;;;;;5005518;28;20038;-73
2021/12/11 08:25:43;;;;;;;22.05;11.57;;;4.60;99.90;;;;;;5001351;28;20374;-72
2021/12/11 08:28:13;;;;;;;19.08;8.77;;;4.50;99.90;;;;;;4995146;28;20031;-72
2021/12/11 08:30:41;;;;;;;22.15;8.52;;;4.30;99.90;;;;;;4985941;28;20030;-74
2021/12/11 08:33:07;;;;;;;16.25;7.63;;;4.10;99.90;;;;;;4985623;28;20034;-73
2021/12/11 08:35:33;;;;;;;19.33;8.07;;;4.00;99.90;;;;;;4996056;28;20022;-72
2021/12/11 08:38:00;;;;;;;19.92;7.70;;;3.90;99.90;;;;;;5003385;28;20046;-74
2021/12/11 08:40:30;;;;;;;21.77;8.48;;;3.80;99.90;;;;;;5000101;28;20069;-72
2021/12/11 08:42:56;;;;;;;15.80;6.85;;;3.70;99.90;;;;;;5005635;28;20049;-73
2021/12/11 08:45:33;;;;;;;22.90;8.20;;;3.70;99.90;;;;;;5005128;28;20031;-73
2021/12/11 08:48:00;;;;;;;22.67;7.90;;;3.70;99.90;;;;;;5005060;28;20057;-73
2021/12/11 08:50:28;;;;;;;24.58;6.80;;;3.80;99.90;;;;;;5003657;28;20034;-72
2021/12/11 08:52:58;;;;;;;19.77;7.40;;;3.60;99.90;;;;;;4999140;28;20481;-75
2021/12/11 08:55:30;;;;;;;17.90;7.40;;;3.70;99.90;;;;;;5000184;28;20061;-73
2021/12/11 08:57:58;;;;;;;24.50;7.55;;;3.70;99.90;;;;;;5007379;28;20341;-73
2021/12/11 09:00:36;;;;;;;27.15;9.05;;;3.70;99.90;;;;;;5005607;28;20475;-74
2021/12/11 09:03:18;;;;;;;21.92;8.40;;;3.70;99.90;;;;;;5005296;28;20537;-72
2021/12/11 09:05:56;;;;;;;15.43;7.18;;;3.70;99.90;;;;;;5004771;28;20031;-73
2021/12/11 09:09:03;;;;;;;26.08;9.13;;;3.80;99.90;;;;;;5004349;28;20053;-73
2021/12/11 09:11:34;;;;;;;22.17;8.75;;;3.80;99.90;;;;;;4988629;28;20046;-74
2021/12/11 09:14:22;;;;;;;33.53;9.82;;;3.80;99.90;;;;;;4988775;28;20093;-73
2021/12/11 09:16:54;;;;;;;20.42;9.00;;;3.80;99.90;;;;;;5001432;28;20035;-73
2021/12/11 09:19:43;;;;;;;25.55;9.38;;;3.70;99.90;;;;;;5007846;28;20128;-72
2021/12/11 09:22:23;;;;;;;22.42;8.95;;;3.70;99.90;;;;;;5009939;28;20038;-73
2021/12/11 09:24:55;;;;;;;23.27;8.43;;;3.70;99.90;;;;;;4983989;28;20054;-72
2021/12/11 09:27:33;;;;;;;17.15;8.75;;;3.60;99.90;;;;;;4996054;28;20038;-73
2021/12/11 09:30:08;;;;;;;20.90;9.43;;;3.70;99.90;;;;;;4995058;28;20037;-73
2021/12/11 09:32:46;;;;;;;21.98;8.98;;;3.70;99.90;;;;;;4993644;28;20027;-73
2021/12/11 09:35:37;;;;;;;19.17;7.78;;;3.70;99.90;;;;;;5003593;28;20045;-73
2021/12/11 09:38:08;;;;;;;21.00;8.07;;;3.70;99.90;;;;;;4995031;28;20034;-73
2021/12/11 09:40:39;;;;;;;20.20;8.70;;;3.70;99.90;;;;;;5003252;28;20060;-72
2021/12/11 09:43:04;;;;;;;23.77;8.10;;;3.80;99.90;;;;;;5004224;28;20034;-73
2021/12/11 09:45:36;;;;;;;17.58;7.75;;;3.80;99.90;;;;;;5003349;28;20049;-74
2021/12/11 09:48:10;;;;;;;20.73;8.90;;;3.80;99.90;;;;;;4999096;28;20038;-75
2021/12/11 09:50:48;;;;;;;18.63;8.35;;;3.80;99.90;;;;;;5010466;28;20028;-74
2021/12/11 09:53:17;;;;;;;20.83;7.55;;;3.90;99.90;;;;;;5003930;28;20093;-73
2021/12/11 09:55:43;;;;;;;22.67;8.43;;;3.90;99.90;;;;;;5000899;28;20423;-72
2021/12/11 09:58:12;;;;;;;35.10;8.60;;;3.90;99.90;;;;;;5003482;28;20069;-72
2021/12/11 10:00:41;;;;;;;19.33;8.68;;;3.90;99.90;;;;;;5003940;28;20475;-71
2021/12/11 10:03:08;;;;;;;20.70;8.02;;;3.90;99.90;;;;;;5002986;28;20463;-72
2021/12/11 10:05:44;;;;;;;19.35;8.70;;;3.90;99.90;;;;;;5003321;28;20039;-72
2021/12/11 10:08:30;;;;;;;23.42;8.27;;;4.00;99.90;;;;;;5003807;28;20042;-73
2021/12/11 10:11:15;;;;;;;19.45;7.35;;;3.90;99.90;;;;;;5004782;28;20057;-73
2021/12/11 10:13:49;;;;;;;24.63;7.43;;;3.90;99.90;;;;;;5004067;28;20113;-72
2021/12/11 10:16:19;;;;;;;46.33;14.88;;;3.90;99.90;;;;;;5007400;28;20038;-74
2021/12/11 10:18:47;;;;;;;24.25;9.98;;;3.90;99.90;;;;;;5002540;28;20057;-73
2021/12/11 10:21:19;;;;;;;17.23;6.78;;;4.00;99.90;;;;;;5008288;28;20033;-71
2021/12/11 10:23:49;;;;;;;20.55;7.35;;;4.00;99.90;;;;;;5007860;28;20034;-73
2021/12/11 10:26:16;;;;;;;21.63;7.68;;;4.10;99.90;;;;;;5005935;28;20026;-73
2021/12/11 10:28:46;;;;;;;14.38;7.47;;;4.10;99.90;;;;;;4998113;28;20023;-72
2021/12/11 10:31:16;;;;;;;14.13;6.53;;;4.20;99.90;;;;;;5002834;28;20022;-74
2021/12/11 10:33:43;;;;;;;18.25;7.07;;;4.20;99.90;;;;;;5008007;28;20095;-73
2021/12/11 10:36:12;;;;;;;20.35;7.65;;;4.30;99.90;;;;;;5006661;28;20023;-73
2021/12/11 10:38:40;;;;;;;16.17;6.97;;;4.30;99.90;;;;;;5007765;28;20038;-72
2021/12/11 10:41:10;;;;;;;22.48;7.60;;;4.50;99.90;;;;;;5007556;28;20045;-72
2021/12/11 10:43:53;;;;;;;14.85;6.38;;;4.40;99.90;;;;;;5007757;28;20062;-72
2021/12/11 10:46:23;;;;;;;17.20;7.03;;;4.50;99.90;;;;;;5007828;28;20458;-73
2021/12/11 10:48:50;;;;;;;16.95;5.93;;;4.60;99.90;;;;;;5007939;28;20401;-72
2021/12/11 10:51:21;;;;;;;26.17;7.10;;;4.60;99.90;;;;;;5006693;28;20069;-75
2021/12/11 10:53:48;;;;;;;16.63;7.80;;;4.80;99.90;;;;;;5005673;28;20022;-73
2021/12/11 10:56:17;;;;;;;19.52;6.57;;;5.20;99.90;;;;;;5007587;28;20034;-72
2021/12/11 10:58:51;;;;;;;16.05;7.22;;;5.80;99.90;;;;;;5005656;28;20065;-72
2021/12/11 11:01:31;;;;;;;14.60;6.55;;;6.30;99.90;;;;;;5007827;28;20081;-73
2021/12/11 11:04:07;;;;;;;19.65;7.00;;;6.70;99.90;;;;;;5006090;28;20034;-74
2021/12/11 11:06:40;;;;;;;22.48;7.47;;;6.70;99.90;;;;;;5003322;28;20130;-73
2021/12/11 11:09:07;;;;;;;19.85;7.57;;;6.70;99.90;;;;;;5006943;28;20022;-73
2021/12/11 11:11:35;;;;;;;15.90;6.40;;;6.80;99.90;;;;;;5007194;28;20029;-74
2021/12/11 11:14:04;;;;;;;15.32;6.40;;;6.80;99.90;;;;;;4996519;28;20125;-74
2021/12/11 11:16:31;;;;;;;14.13;6.28;;;6.90;99.90;;;;;;4995904;28;20039;-74
2021/12/11 11:19:00;;;;;;;16.63;6.95;;;6.70;99.90;;;;;;4990403;28;20453;-74
2021/12/11 11:21:33;;;;;;;17.33;6.10;;;6.60;99.90;;;;;;5006688;28;20022;-72
2021/12/11 11:24:00;;;;;;;12.05;5.63;;;6.60;99.90;;;;;;5005520;28;20090;-73
2021/12/11 11:26:31;;;;;;;12.55;5.45;;;6.60;99.90;;;;;;5006231;28;20022;-74
2021/12/11 11:29:01;;;;;;;17.92;6.15;;;6.60;99.90;;;;;;5005498;28;20026;-74
2021/12/11 11:31:34;;;;;;;13.98;5.32;;;6.70;99.90;;;;;;5007009;28;20030;-74
2021/12/11 11:34:02;;;;;;;10.80;5.18;;;6.70;99.90;;;;;;5004959;28;20026;-74
2021/12/11 11:36:30;;;;;;;12.55;4.53;;;6.70;99.90;;;;;;5005031;28;20027;-74
2021/12/11 11:38:59;;;;;;;12.75;4.32;;;6.70;99.90;;;;;;5006324;28;20030;-73
2021/12/11 11:41:42;;;;;;;12.98;5.03;;;6.60;99.90;;;;;;5006669;28;20463;-71
2021/12/11 11:44:09;;;;;;;11.90;5.68;;;6.60;99.90;;;;;;5004777;28;20037;-73
2021/12/11 11:46:37;;;;;;;13.88;5.07;;;6.50;99.90;;;;;;5005701;28;20034;-73
2021/12/11 11:49:04;;;;;;;18.30;5.88;;;6.50;99.90;;;;;;5005892;28;20026;-72
2021/12/11 11:51:34;;;;;;;15.00;4.60;;;6.50;99.90;;;;;;5001493;28;20034;-71
2021/12/11 11:54:03;;;;;;;12.00;4.82;;;6.40;99.90;;;;;;5010203;28;20030;-73
2021/12/11 11:56:34;;;;;;;13.43;4.53;;;6.40;99.90;;;;;;5005183;28;20092;-77
2021/12/11 11:59:01;;;;;;;10.43;4.50;;;6.50;99.90;;;;;;5003430;28;20097;-73
2021/12/11 12:01:32;;;;;;;10.10;4.75;;;6.40;99.90;;;;;;5004618;28;20081;-73
2021/12/11 12:04:00;;;;;;;11.20;4.63;;;6.60;99.90;;;;;;4999363;28;20030;-74
2021/12/11 12:06:32;;;;;;;12.98;3.58;;;6.70;99.90;;;;;;5005023;28;20032;-74
2021/12/11 12:09:06;;;;;;;7.45;3.50;;;7.30;99.90;;;;;;5004359;28;20040;-74
2021/12/11 12:11:33;;;;;;;7.72;3.50;;;7.60;99.90;;;;;;5004295;28;20034;-73
2021/12/11 12:14:01;;;;;;;7.47;3.72;;;7.80;99.90;;;;;;4999448;28;20255;-73
2021/12/11 12:16:29;;;;;;;11.50;3.80;;;7.90;99.90;;;;;;5002748;28;20098;-77
2021/12/11 12:18:57;;;;;;;14.52;5.63;;;8.10;99.90;;;;;;5002786;28;20050;-72
2021/12/11 12:21:23;;;;;;;9.75;3.60;;;8.10;99.90;;;;;;5002872;28;20544;-72
2021/12/11 12:23:53;;;;;;;7.38;3.45;;;8.40;99.90;;;;;;5002985;28;20062;-75
2021/12/11 12:26:25;;;;;;;9.55;3.28;;;9.00;99.90;;;;;;4989872;28;20031;-73
2021/12/11 12:28:53;;;;;;;5.47;2.65;;;9.40;99.90;;;;;;4994843;28;20077;-75
2021/12/11 12:31:25;;;;;;;7.22;3.20;;;9.80;99.90;;;;;;5002651;28;20117;-71
2021/12/11 12:33:52;;;;;;;8.18;2.70;;;10.10;99.90;;;;;;4996410;28;20041;-71
2021/12/11 12:36:19;;;;;;;9.50;3.78;;;10.50;99.90;;;;;;4999421;28;20033;-71
2021/12/11 12:38:47;;;;;;;9.10;2.92;;;10.90;99.90;;;;;;5002443;28;20067;-72
2021/12/11 12:41:22;;;;;;;8.02;3.03;;;11.30;99.90;;;;;;5019323;28;20041;-74
2021/12/11 12:44:16;;;;;;;8.23;3.22;;;11.10;99.90;;;;;;4999635;28;20050;-73
2021/12/11 12:46:55;;;;;;;13.57;3.15;;;10.60;99.90;;;;;;5003554;28;20093;-71
2021/12/11 12:49:32;;;;;;;5.60;2.65;;;9.90;99.90;;;;;;5005095;28;20053;-73
2021/12/11 12:52:05;;;;;;;6.13;3.13;;;9.40;99.90;;;;;;5000541;28;20034;-72
2021/12/11 12:54:31;;;;;;;9.43;3.63;;;8.90;99.90;;;;;;4986990;28;20064;-72
2021/12/11 12:57:09;;;;;;;9.90;3.80;;;8.50;99.90;;;;;;4999457;28;20082;-74
2021/12/11 12:59:38;;;;;;;9.90;3.55;;;8.30;99.90;;;;;;4997053;28;20084;-73
2021/12/11 13:02:18;;;;;;;13.77;4.00;;;7.90;99.90;;;;;;4999974;28;20115;-74
2021/12/11 13:04:51;;;;;;;5.28;2.67;;;7.60;99.90;;;;;;4984189;28;20058;-72
2021/12/11 13:07:17;;;;;;;12.18;3.72;;;7.50;99.90;;;;;;4993464;28;20054;-73
2021/12/11 13:09:46;;;;;;;14.57;4.35;;;7.30;99.90;;;;;;4999719;28;20054;-71
2021/12/11 13:12:19;;;;;;;7.90;4.00;;;7.30;99.90;;;;;;5003059;28;20034;-72
2021/12/11 13:14:47;;;;;;;9.73;3.60;;;7.20;99.90;;;;;;5004137;28;20023;-73
2021/12/11 13:17:19;;;;;;;8.25;4.53;;;7.20;99.90;;;;;;5001763;28;20042;-74
2021/12/11 13:19:51;;;;;;;8.90;4.00;;;7.30;99.90;;;;;;5003954;28;20172;-74
2021/12/11 13:22:28;;;;;;;8.38;3.78;;;7.30;99.90;;;;;;5004912;28;20026;-73